Time,TemperatureF,DewpointF,PressureIn,WindDirection,WindDirectionDegrees,WindSpeedMPH,WindSpeedGustMPH,Humidity,HourlyPrecipIn,Conditions,Clouds,dailyrainin,SolarRadiationWatts/m^2,SoftwareType,DateUTC
2013-02-20 00:21:00,33.0,32.0,-100.00,NNE,22,4.0,8.0,97,0.00,,,0.00,0.000000,,2013-02-20 08:21:00,
2013-02-20 00:31:00,33.0,32.0,-100.00,NNE,22,4.0,8.0,97,0.00,,,0.00,0.000000,,2013-02-20 08:31:00,
2013-02-20 00:41:00,33.0,32.0,-100.00,NNE,22,4.0,8.0,97,0.00,,,0.00,0.000000,,2013-02-20 08:41:00,
2013-02-20 00:52:00,33.0,32.0,-100.00,NNE,22,4.0,8.0,97,0.00,,,0.00,0.000000,,2013-02-20 08:52:00,
2013-02-20 01:21:00,32.0,31.0,-100.00,North,2,7.0,14.0,97,0.00,,,0.00,0.000000,,2013-02-20 09:21:00,
2013-02-20 01:31:00,32.0,31.0,-100.00,North,2,7.0,14.0,97,0.00,,,0.00,0.000000,,2013-02-20 09:31:00,
2013-02-20 01:41:00,32.0,31.0,-100.00,North,2,7.0,14.0,97,0.00,,,0.00,0.000000,,2013-02-20 09:41:00,
2013-02-20 01:51:00,32.0,31.0,-100.00,North,2,7.0,14.0,97,0.00,,,0.00,0.000000,,2013-02-20 09:51:00,
2013-02-20 02:21:00,33.0,32.0,-100.00,NNW,347,8.0,15.0,96,0.00,,,0.00,0.000000,,2013-02-20 10:21:00,
2013-02-20 02:31:00,33.0,32.0,-100.00,NNW,347,8.0,15.0,96,0.00,,,0.00,0.000000,,2013-02-20 10:31:00,
2013-02-20 02:41:00,33.0,32.0,-100.00,NNW,347,8.0,15.0,96,0.00,,,0.00,0.000000,,2013-02-20 10:41:00,
2013-02-20 02:51:00,33.0,32.0,-100.00,NNW,347,8.0,15.0,96,0.00,,,0.00,0.000000,,2013-02-20 10:51:00,
2013-02-20 03:21:00,33.0,31.0,-100.00,WNW,284,7.0,14.0,92,0.00,,,0.00,0.000000,,2013-02-20 11:21:00,
2013-02-20 03:32:00,33.0,31.0,-100.00,WNW,284,7.0,14.0,92,0.00,,,0.00,0.000000,,2013-02-20 11:32:00,
2013-02-20 03:41:00,33.0,31.0,-100.00,WNW,284,7.0,14.0,92,0.00,,,0.00,0.000000,,2013-02-20 11:41:00,
2013-02-20 03:52:00,33.0,31.0,-100.00,WNW,284,7.0,14.0,92,0.00,,,0.00,0.000000,,2013-02-20 11:52:00,
2013-02-20 04:21:00,33.0,31.0,-100.00,North,1,2.0,16.0,92,0.00,,,0.00,0.000000,,2013-02-20 12:21:00,
2013-02-20 04:31:00,33.0,31.0,-100.00,North,1,2.0,16.0,92,0.00,,,0.00,0.000000,,2013-02-20 12:31:00,
2013-02-20 04:42:00,33.0,31.0,-100.00,North,1,2.0,16.0,92,0.00,,,0.00,0.000000,,2013-02-20 12:42:00,
2013-02-20 04:52:00,33.0,31.0,-100.00,North,1,2.0,16.0,92,0.00,,,0.00,0.000000,,2013-02-20 12:52:00,
2013-02-20 05:22:00,32.0,31.0,-100.00,SSE,166,6.0,12.0,96,0.00,,,0.00,0.000000,,2013-02-20 13:22:00,
2013-02-20 05:31:00,32.0,31.0,-100.00,SSE,166,6.0,12.0,96,0.00,,,0.00,0.000000,,2013-02-20 13:31:00,
2013-02-20 05:42:00,32.0,31.0,-100.00,SSE,166,6.0,12.0,96,0.00,,,0.00,0.000000,,2013-02-20 13:42:00,
2013-02-20 05:51:00,32.0,31.0,-100.00,SSE,166,6.0,12.0,96,0.00,,,0.00,0.000000,,2013-02-20 13:51:00,
2013-02-20 06:21:00,32.0,31.0,-100.00,SSE,158,3.0,10.0,96,0.00,,,0.00,0.000000,,2013-02-20 14:21:00,
2013-02-20 06:32:00,32.0,31.0,-100.00,SSE,158,3.0,10.0,96,0.00,,,0.00,0.000000,,2013-02-20 14:32:00,
2013-02-20 06:42:00,32.0,31.0,-100.00,SSE,158,3.0,10.0,96,0.00,,,0.00,0.000000,,2013-02-20 14:42:00,
2013-02-20 06:52:00,32.0,31.0,-100.00,SSE,158,3.0,10.0,96,0.00,,,0.00,0.000000,,2013-02-20 14:52:00,
2013-02-20 07:22:00,32.0,30.0,-100.00,SSE,154,5.0,7.0,92,0.00,,,0.00,1.000000,,2013-02-20 15:22:00,
2013-02-20 07:32:00,32.0,30.0,-100.00,SSE,154,5.0,7.0,92,0.00,,,0.00,1.000000,,2013-02-20 15:32:00,
2013-02-20 07:41:00,32.0,30.0,-100.00,SSE,154,5.0,7.0,92,0.00,,,0.00,1.000000,,2013-02-20 15:41:00,
2013-02-20 07:51:00,32.0,30.0,-100.00,SSE,154,5.0,7.0,92,0.00,,,0.00,1.000000,,2013-02-20 15:51:00,
2013-02-20 08:21:00,33.0,28.0,-100.00,SSE,168,4.0,11.0,83,0.00,,,0.00,48.000000,,2013-02-20 16:21:00,
2013-02-20 08:32:00,33.0,28.0,-100.00,SSE,168,4.0,11.0,83,0.00,,,0.00,48.000000,,2013-02-20 16:32:00,
2013-02-20 08:41:00,33.0,28.0,-100.00,SSE,168,4.0,11.0,83,0.00,,,0.00,48.000000,,2013-02-20 16:41:00,
2013-02-20 08:51:00,33.0,28.0,-100.00,SSE,168,4.0,11.0,83,0.00,,,0.00,48.000000,,2013-02-20 16:51:00,
2013-02-20 09:21:00,34.0,28.0,-100.00,SSE,161,16.0,20.0,78,0.00,,,0.00,273.000000,,2013-02-20 17:21:00,
2013-02-20 09:32:00,34.0,28.0,-100.00,SSE,161,16.0,20.0,78,0.00,,,0.00,273.000000,,2013-02-20 17:32:00,
2013-02-20 09:41:00,34.0,28.0,-100.00,SSE,161,16.0,20.0,78,0.00,,,0.00,273.000000,,2013-02-20 17:41:00,
2013-02-20 09:52:00,34.0,28.0,-100.00,SSE,161,16.0,20.0,78,0.00,,,0.00,273.000000,,2013-02-20 17:52:00,
2013-02-20 10:21:00,36.0,31.0,-100.00,SSE,152,16.0,24.0,81,0.00,,,0.00,464.000000,,2013-02-20 18:21:00,
2013-02-20 10:31:00,36.0,31.0,-100.00,SSE,152,16.0,24.0,81,0.00,,,0.00,464.000000,,2013-02-20 18:31:00,
2013-02-20 10:42:00,36.0,31.0,-100.00,SSE,152,16.0,24.0,81,0.00,,,0.00,464.000000,,2013-02-20 18:42:00,
2013-02-20 10:51:00,36.0,31.0,-100.00,SSE,152,16.0,24.0,81,0.00,,,0.00,464.000000,,2013-02-20 18:51:00,
2013-02-20 11:21:00,36.0,29.0,-100.00,SSE,155,18.0,25.0,75,0.07,,,0.07,667.000000,,2013-02-20 19:21:00,
2013-02-20 11:31:00,36.0,29.0,-100.00,SSE,155,18.0,25.0,75,0.07,,,0.07,667.000000,,2013-02-20 19:31:00,
2013-02-20 11:41:00,36.0,29.0,-100.00,SSE,155,18.0,25.0,75,0.07,,,0.07,667.000000,,2013-02-20 19:41:00,
2013-02-20 11:51:00,36.0,29.0,-100.00,SSE,155,18.0,25.0,75,0.07,,,0.07,667.000000,,2013-02-20 19:51:00,
2013-02-20 12:21:00,40.0,31.0,-100.00,South,169,15.0,22.0,70,0.01,,,0.08,834.000000,,2013-02-20 20:21:00,
2013-02-20 12:31:00,40.0,31.0,-100.00,South,169,15.0,22.0,70,0.01,,,0.08,834.000000,,2013-02-20 20:31:00,
2013-02-20 12:41:00,40.0,31.0,-100.00,South,169,15.0,22.0,70,0.01,,,0.08,834.000000,,2013-02-20 20:41:00,
2013-02-20 12:51:00,40.0,31.0,-100.00,South,169,15.0,22.0,70,0.01,,,0.08,834.000000,,2013-02-20 20:51:00,
2013-02-20 13:21:00,38.0,30.0,-100.00,SSE,163,21.0,30.0,72,0.00,,,0.08,863.000000,,2013-02-20 21:21:00,
2013-02-20 13:31:00,38.0,30.0,-100.00,SSE,163,21.0,30.0,72,0.00,,,0.08,863.000000,,2013-02-20 21:31:00,
2013-02-20 13:41:00,38.0,30.0,-100.00,SSE,163,21.0,30.0,72,0.00,,,0.08,863.000000,,2013-02-20 21:41:00,
2013-02-20 13:51:00,38.0,30.0,-100.00,SSE,163,21.0,30.0,72,0.00,,,0.08,863.000000,,2013-02-20 21:51:00,
2013-02-20 14:21:00,40.0,31.0,-100.00,SSE,166,23.0,29.0,69,0.01,,,0.09,744.000000,,2013-02-20 22:21:00,
2013-02-20 14:31:00,40.0,31.0,-100.00,SSE,166,23.0,29.0,69,0.01,,,0.09,744.000000,,2013-02-20 22:31:00,
2013-02-20 14:42:00,40.0,31.0,-100.00,SSE,166,23.0,29.0,69,0.01,,,0.09,744.000000,,2013-02-20 22:42:00,
2013-02-20 14:51:00,40.0,31.0,-100.00,SSE,166,23.0,29.0,69,0.01,,,0.09,744.000000,,2013-02-20 22:51:00,
2013-02-20 15:22:00,40.0,31.0,-100.00,South,169,19.0,29.0,70,0.00,,,0.09,456.000000,,2013-02-20 23:22:00,
2013-02-20 15:31:00,40.0,31.0,-100.00,South,169,19.0,29.0,70,0.00,,,0.09,456.000000,,2013-02-20 23:31:00,
2013-02-20 15:42:00,40.0,31.0,-100.00,South,169,19.0,29.0,70,0.00,,,0.09,456.000000,,2013-02-20 23:42:00,
2013-02-20 15:52:00,40.0,31.0,-100.00,South,169,19.0,29.0,70,0.00,,,0.09,456.000000,,2013-02-20 23:52:00,
2013-02-20 16:21:00,37.0,28.0,-100.00,South,170,19.0,27.0,69,0.00,,,0.09,421.000000,,2013-02-21 00:21:00,
2013-02-20 16:32:00,37.0,28.0,-100.00,South,170,19.0,27.0,69,0.00,,,0.09,421.000000,,2013-02-21 00:32:00,
2013-02-20 16:42:00,37.0,28.0,-100.00,South,170,19.0,27.0,69,0.00,,,0.09,421.000000,,2013-02-21 00:42:00,
2013-02-20 16:52:00,37.0,28.0,-100.00,South,170,19.0,27.0,69,0.00,,,0.09,421.000000,,2013-02-21 00:52:00,
2013-02-20 17:21:00,36.0,29.0,-100.00,SSE,160,15.0,28.0,74,0.00,,,0.09,216.000000,,2013-02-21 01:21:00,
2013-02-20 17:32:00,36.0,29.0,-100.00,SSE,160,15.0,28.0,74,0.00,,,0.09,216.000000,,2013-02-21 01:32:00,
2013-02-20 17:41:00,36.0,29.0,-100.00,SSE,160,15.0,28.0,74,0.00,,,0.09,216.000000,,2013-02-21 01:41:00,
2013-02-20 17:51:00,36.0,29.0,-100.00,SSE,160,15.0,28.0,74,0.00,,,0.09,216.000000,,2013-02-21 01:51:00,
2013-02-20 18:21:00,35.0,28.0,-100.00,South,191,1.0,20.0,76,0.00,,,0.09,17.000000,,2013-02-21 02:21:00,
2013-02-20 18:32:00,35.0,28.0,-100.00,South,191,1.0,20.0,76,0.00,,,0.09,17.000000,,2013-02-21 02:32:00,
2013-02-20 18:42:00,35.0,28.0,-100.00,South,191,1.0,20.0,76,0.00,,,0.09,17.000000,,2013-02-21 02:42:00,
2013-02-20 18:51:00,35.0,28.0,-100.00,South,191,1.0,20.0,76,0.00,,,0.09,17.000000,,2013-02-21 02:51:00,
2013-02-20 19:21:00,33.0,26.0,-100.00,West,260,0.0,4.0,76,0.00,,,0.09,0.000000,,2013-02-21 03:21:00,
2013-02-20 19:31:00,33.0,26.0,-100.00,West,260,0.0,4.0,76,0.00,,,0.09,0.000000,,2013-02-21 03:31:00,
2013-02-20 19:41:00,33.0,26.0,-100.00,West,260,0.0,4.0,76,0.00,,,0.09,0.000000,,2013-02-21 03:41:00,
2013-02-20 19:51:00,33.0,26.0,-100.00,West,260,0.0,4.0,76,0.00,,,0.09,0.000000,,2013-02-21 03:51:00,
2013-02-20 20:21:00,34.0,28.0,-100.00,SSE,166,0.0,0.0,78,0.00,,,-99.99,0.000000,,2013-02-21 04:21:00,
2013-02-20 20:31:00,34.0,28.0,-100.00,SSE,166,0.0,0.0,78,0.00,,,-99.99,0.000000,,2013-02-21 04:31:00,
2013-02-20 20:41:00,34.0,28.0,-100.00,SSE,166,0.0,0.0,78,0.00,,,-99.99,0.000000,,2013-02-21 04:41:00,
2013-02-20 20:51:00,34.0,28.0,-100.00,SSE,166,0.0,0.0,78,0.00,,,-99.99,0.000000,,2013-02-21 04:51:00,
2013-02-20 21:22:00,34.0,27.0,-100.00,SE,144,0.0,4.0,75,0.00,,,0.09,0.000000,,2013-02-21 05:22:00,
2013-02-20 21:33:00,34.0,27.0,-100.00,SE,144,0.0,4.0,75,0.00,,,0.09,0.000000,,2013-02-21 05:33:00,
2013-02-20 21:43:00,34.0,27.0,-100.00,SE,144,0.0,4.0,75,0.00,,,0.09,0.000000,,2013-02-21 05:43:00,
2013-02-20 21:52:00,34.0,27.0,-100.00,SE,144,0.0,4.0,75,0.00,,,0.09,0.000000,,2013-02-21 05:52:00,
2013-02-20 22:11:00,33.0,28.0,-100.00,North,1,3.0,5.0,82,0.00,,,0.09,0.000000,,2013-02-21 06:11:00,
2013-02-20 22:21:00,33.0,28.0,-100.00,North,1,3.0,5.0,82,0.00,,,0.09,0.000000,,2013-02-21 06:21:00,
2013-02-20 22:31:00,33.0,28.0,-100.00,North,1,3.0,5.0,82,0.00,,,0.09,0.000000,,2013-02-21 06:31:00,
2013-02-20 22:41:00,33.0,28.0,-100.00,North,1,3.0,5.0,82,0.00,,,0.09,0.000000,,2013-02-21 06:41:00,
2013-02-20 22:51:00,33.0,28.0,-100.00,North,1,3.0,5.0,82,0.00,,,0.09,0.000000,,2013-02-21 06:51:00,
2013-02-20 23:21:00,33.0,28.0,-100.00,North,9,8.0,11.0,82,0.00,,,0.09,0.000000,,2013-02-21 07:21:00,
2013-02-20 23:31:00,33.0,28.0,-100.00,North,9,8.0,11.0,82,0.00,,,0.09,0.000000,,2013-02-21 07:31:00,
2013-02-20 23:41:00,33.0,28.0,-100.00,North,9,8.0,11.0,82,0.00,,,0.09,0.000000,,2013-02-21 07:41:00,
2013-02-20 23:52:00,33.0,28.0,-100.00,North,9,8.0,11.0,82,0.00,,,0.09,0.000000,,2013-02-21 07:52:00,